Santa Rosa, Texas
Current Conditions -  °F | °C
As of 3:15 PM on Saturday 22 Nov 2014 (Local Time) from KT65 Reporting Station
Scattered Clouds Scattered Clouds  
Wind Chill: 79°   Ceiling: Unl
Heat Index: 81°   Visibility: 7mi
Dew Point: 68°   Wind: 18mph
Humidity: 69%   Direction: 150°SSE
Pressure: 29.75"   Gusts: 29mph
Location:  26.26°N, 97.82°W
Report Text: KT65 222115Z AUTO 15016G25KT 7SM SCT041 26/20 A2975 RMK AO2 LTG DSNT N T02590198
Loading
Personal Weather Stations






























Interactive Weather Map New forecast layout! Learn more

10-Day Weather Forecast

Advertisements
Track Severe Weather on mobile